Ana Sayfa
METAR-TAF:

METAR-TAF

Havaalanları :

Larnaka Uluslararası Havalimanı

Larnaka, Kıbrıs

Enlem: 34-53N, Boylam: 033-38E, yükseklik: 2 m

Güncel hava durumu gözlemi

Rapor saat 22:00 UTC de 32 dakika önce yapıldı.
Rüzgar kuzey/kuzeybatıdan 2 kt
Sıcaklık 14°C
Nem 88%
Basınç 1019 hPa
Görüş mesafesi 10 km veya daha fazla
1500 m altında bulut yok ve kümülonimbus yok

METAR: LCLK 122200Z 33002KT CAVOK 14/12 Q1019 NOSIG

Saat: 00:32 (22:32 UTC)

Tahmin

Rapor saat 17:30 UTC de 5 saat ve 2 dakika önce yapıldı.
Ayın 12'si saat 18 UTC'den ayın 13'si saat 18 UTC'ye kadar geçerli Tahmin
Rüzgar kuzey/kuzeybatıdan 7 kt
Görüş mesafesi 10 km veya daha fazla
2500 ft yükseklikte az bulutlu
Dönüşüyor
ayın 13'si saat 07 UTC'den ayın 13'si saat 10 UTC'ye kadar
Rüzgar doğudan 12 kt

TAF: LCLK 121730Z 1218/1318 34007KT 9999 FEW025 BECMG 1307/1310 09012KT

4.000'den fazla havaalanı için hava durumu gözlemleri ve tahminleri (METAR ve TAF raporları).

Kullanılabilir istasyonlar harita üzerinde sarı ve kırmızı noktalarla gösterilir.

İstasyonun adını görmek için fareyi noktanın üzerinde gezdirin.

Sonrasında hava gözlem ve tahminlerini görmek için tıklayın.

Haritayı değiştirmek için: yaklaştırmak için siyah artı işaretli yeşil düğmeye ve uzaklaştırmak için de eksi işaretli düğmeye hızla tıklayın; bitişik haritalar için yeşil okları kullanın.


METAR-TAF: